createdAt,value
2023-04-23T00:00:54.841Z,100566.56
2023-04-23T00:03:24.446Z,100575.09
2023-04-23T00:05:54.965Z,100564.97
2023-04-23T00:08:24.409Z,100577.03
2023-04-23T00:10:53.742Z,100572.25
2023-04-23T00:13:23.979Z,100576.88
2023-04-23T00:15:54.204Z,100575.44
2023-04-23T00:18:24.432Z,100577.41
2023-04-23T00:20:54.224Z,100574.00
2023-04-23T00:23:23.566Z,100567.94
2023-04-23T00:25:53.674Z,100560.50
2023-04-23T00:28:22.483Z,100556.41
2023-04-23T00:30:52.772Z,100553.72
2023-04-23T00:33:23.108Z,100553.72
2023-04-23T00:35:52.989Z,100551.56
2023-04-23T00:38:22.854Z,100540.72
2023-04-23T00:40:52.847Z,100548.00
2023-04-23T00:43:21.059Z,100548.00
2023-04-23T00:45:50.507Z,100541.22
2023-04-23T00:48:19.379Z,100531.28
2023-04-23T00:50:48.299Z,100537.13
2023-04-23T00:53:18.189Z,100529.09
2023-04-23T00:55:48.123Z,100529.66
2023-04-23T00:58:18.129Z,100523.59
2023-04-23T01:00:48.215Z,100528.25
2023-04-23T01:03:17.363Z,100530.19
2023-04-23T01:05:45.788Z,100524.84
2023-04-23T01:08:16.163Z,100523.41
2023-04-23T01:10:46.578Z,100525.41
2023-04-23T01:13:15.561Z,100525.91
2023-04-23T01:15:45.504Z,100514.00
2023-04-23T01:18:15.394Z,100509.88
2023-04-23T01:20:44.920Z,100515.22
2023-04-23T01:23:13.761Z,100507.22
2023-04-23T01:25:44.067Z,100503.13
2023-04-23T01:28:13.890Z,100496.34
2023-04-23T01:30:43.350Z,100495.69
2023-04-23T01:33:13.184Z,100489.63
2023-04-23T01:35:43.228Z,100493.50
2023-04-23T01:38:11.536Z,100493.50
2023-04-23T01:40:41.822Z,100490.34
2023-04-23T01:43:11.649Z,100478.94
2023-04-23T01:45:42.113Z,100473.63
2023-04-23T01:48:11.941Z,100469.50
2023-04-23T01:50:41.831Z,100473.63
2023-04-23T01:53:11.663Z,100466.84
2023-04-23T01:55:42.057Z,100466.84
2023-04-23T01:58:11.391Z,100461.50
2023-04-23T02:00:40.745Z,100460.09
2023-04-23T02:03:10.425Z,100470.03
2023-04-23T02:05:38.751Z,100465.25
2023-04-23T02:08:09.585Z,100479.97
2023-04-23T02:10:39.454Z,100467.91
2023-04-23T02:13:10.376Z,100463.78
2023-04-23T02:15:40.311Z,100451.19
2023-04-23T02:18:10.182Z,100467.19
2023-04-23T02:20:40.104Z,100460.41
2023-04-23T02:23:10.456Z,100461.13
2023-04-23T02:25:40.367Z,100454.38
2023-04-23T02:28:10.249Z,100465.75
2023-04-23T02:30:42.119Z,100459.72
2023-04-23T02:33:11.084Z,100454.38
2023-04-23T02:35:40.457Z,100447.59
2023-04-23T02:38:09.997Z,100454.38
2023-04-23T02:40:39.321Z,100455.06
2023-04-23T02:43:09.098Z,100452.94
2023-04-23T02:45:37.998Z,100447.59
2023-04-23T02:48:07.363Z,100442.25
2023-04-23T02:50:36.390Z,100442.25
2023-04-23T02:53:04.242Z,100440.16
2023-04-23T02:55:33.639Z,100435.53
2023-04-23T02:58:03.514Z,100442.25
2023-04-23T03:00:36.009Z,100441.56
2023-04-23T03:03:06.066Z,100440.16
2023-04-23T03:05:36.185Z,100429.47
2023-04-23T03:08:05.771Z,100444.03
2023-04-23T03:10:35.786Z,100444.03
2023-04-23T03:13:06.045Z,100436.56
2023-04-23T03:15:35.839Z,100441.88
2023-04-23T03:18:05.418Z,100441.88
2023-04-23T03:20:33.969Z,100436.56
2023-04-23T03:23:02.606Z,100435.16
2023-04-23T03:25:31.303Z,100433.16
2023-04-23T03:28:00.040Z,100439.06
2023-04-23T03:30:30.027Z,100437.81
2023-04-23T03:33:00.150Z,100437.09
2023-04-23T03:35:30.676Z,100433.72
2023-04-23T03:38:03.033Z,100423.03
2023-04-23T03:40:33.762Z,100429.63
2023-04-23T03:43:05.453Z,100422.84
2023-04-23T03:45:55.054Z,100418.25
2023-04-23T03:48:23.949Z,100418.78
2023-04-23T03:50:54.213Z,100417.34
2023-04-23T03:53:36.514Z,100417.34
2023-04-23T03:56:26.967Z,100411.81
2023-04-23T03:59:14.037Z,100407.72
2023-04-23T04:01:45.474Z,100413.06
2023-04-23T04:04:15.913Z,100416.97
2023-04-23T04:06:45.271Z,100411.63
2023-04-23T04:09:15.241Z,100416.97
2023-04-23T04:11:44.790Z,100421.56
2023-04-23T04:14:12.987Z,100414.09
2023-04-23T04:16:43.274Z,100418.00
2023-04-23T04:19:13.025Z,100420.66
2023-04-23T04:21:43.332Z,100427.25
2023-04-23T04:24:13.261Z,100420.66
2023-04-23T04:26:42.770Z,100424.59
2023-04-23T04:29:11.627Z,100425.81
2023-04-23T04:31:40.533Z,100424.41
2023-04-23T04:34:09.926Z,100421.72
2023-04-23T04:36:40.220Z,100415.16
2023-04-23T04:39:10.613Z,100414.47
2023-04-23T04:41:40.934Z,100421.94
2023-04-23T04:44:10.796Z,100421.94
2023-04-23T04:46:41.160Z,100422.66
2023-04-23T04:49:11.486Z,100427.25
2023-04-23T04:51:41.522Z,100430.09
2023-04-23T04:54:09.471Z,100430.09
2023-04-23T04:56:37.945Z,100426.22
2023-04-23T04:59:06.493Z,100424.78
2023-04-23T05:01:35.381Z,100431.56
2023-04-23T05:04:05.922Z,100427.63
2023-04-23T05:06:36.327Z,100431.03
2023-04-23T05:09:06.579Z,100433.69
2023-04-23T05:11:36.166Z,100423.72
2023-04-23T05:14:05.067Z,100416.97
2023-04-23T05:16:34.553Z,100418.38
2023-04-23T05:19:04.940Z,100419.81
2023-04-23T05:21:34.960Z,100414.47
2023-04-23T05:24:03.594Z,100409.16
2023-04-23T05:26:33.529Z,100413.94
2023-04-23T05:29:01.943Z,100414.84
2023-04-23T05:31:30.764Z,100420.19
2023-04-23T05:34:00.739Z,100430.50
2023-04-23T05:36:29.360Z,100425.88
2023-04-23T05:38:59.668Z,100434.09
2023-04-23T05:41:28.816Z,100438.38
2023-04-23T05:43:57.530Z,100435.19
2023-04-23T05:46:27.538Z,100430.56
2023-04-23T05:48:56.486Z,100433.25
2023-04-23T05:51:25.487Z,100432.69
2023-04-23T05:53:54.925Z,100429.50
2023-04-23T05:56:25.531Z,100425.78
2023-04-23T05:58:55.810Z,100431.31
2023-04-23T06:01:26.020Z,100424.91
2023-04-23T06:03:56.434Z,100428.47
2023-04-23T06:06:26.618Z,100422.09
2023-04-23T06:08:55.964Z,100414.97
2023-04-23T06:11:25.729Z,100425.31
2023-04-23T06:13:54.685Z,100419.59
2023-04-23T06:16:25.188Z,100422.47
2023-04-23T06:18:55.561Z,100419.97
2023-04-23T06:21:25.999Z,100414.81
2023-04-23T06:23:56.296Z,100415.00
2023-04-23T06:26:26.532Z,100424.81
2023-04-23T06:29:00.889Z,100407.91
2023-04-23T06:31:34.660Z,100418.94
2023-04-23T06:34:03.497Z,100412.38
2023-04-23T06:36:33.554Z,100394.41
2023-04-23T06:39:02.245Z,100401.88
2023-04-23T06:41:32.577Z,100397.94
2023-04-23T06:44:14.061Z,100396.88
2023-04-23T06:46:52.508Z,100398.50
2023-04-23T06:49:21.487Z,100389.44
2023-04-23T06:51:57.900Z,100389.97
2023-04-23T06:54:28.594Z,100387.47
2023-04-23T06:57:01.374Z,100395.84
2023-04-23T06:59:30.210Z,100394.78
2023-04-23T07:02:00.632Z,100395.13
2023-04-23T07:04:30.616Z,100388.72
2023-04-23T07:06:59.205Z,100399.75
2023-04-23T07:09:28.512Z,100382.66
2023-04-23T07:11:58.860Z,100386.97
2023-04-23T07:14:28.819Z,100391.22
2023-04-23T07:17:02.087Z,100377.66
2023-04-23T07:19:32.397Z,100370.88
2023-04-23T07:22:02.512Z,100370.00
2023-04-23T07:24:31.237Z,100375.47
2023-04-23T07:27:01.622Z,100373.34
2023-04-23T07:29:31.096Z,100369.03
2023-04-23T07:32:01.629Z,100371.44
2023-04-23T07:34:30.576Z,100379.41
2023-04-23T07:36:59.913Z,100380.41
2023-04-23T07:39:30.216Z,100378.78
2023-04-23T07:42:00.692Z,100375.81
2023-04-23T07:44:28.645Z,100379.47
2023-04-23T07:46:57.367Z,100375.13
2023-04-23T07:49:27.719Z,100374.13
2023-04-23T07:51:58.084Z,100375.81
2023-04-23T07:54:28.362Z,100378.22
2023-04-23T07:56:58.667Z,100373.78
2023-04-23T07:59:29.045Z,100370.81
2023-04-23T08:01:58.377Z,100367.81
2023-04-23T08:04:28.977Z,100371.44
2023-04-23T08:06:59.518Z,100371.09
2023-04-23T08:09:29.861Z,100364.00
2023-04-23T08:11:59.754Z,100363.94
2023-04-23T08:14:30.134Z,100367.84
2023-04-23T08:17:02.863Z,100357.91
2023-04-23T08:19:33.253Z,100361.13
2023-04-23T08:22:03.596Z,100347.16
2023-04-23T08:24:33.442Z,100354.34
2023-04-23T08:27:02.810Z,100360.94
2023-04-23T08:29:33.163Z,100356.44
2023-04-23T08:32:03.517Z,100353.38
2023-04-23T08:34:35.694Z,100365.31
2023-04-23T08:37:07.362Z,100354.09
2023-04-23T08:39:40.809Z,100360.28
2023-04-23T08:42:10.285Z,100360.16
2023-04-23T08:44:40.294Z,100354.06
2023-04-23T08:47:10.905Z,100355.41
2023-04-23T08:49:40.286Z,100356.78
2023-04-23T08:52:09.792Z,100354.06
2023-04-23T08:54:39.625Z,100351.72
2023-04-23T08:57:09.000Z,100343.72
2023-04-23T08:59:39.601Z,100350.84
2023-04-23T09:02:10.223Z,100350.19
2023-04-23T09:04:40.218Z,100343.41
2023-04-23T09:07:10.605Z,100339.03
2023-04-23T09:09:41.248Z,100341.47
2023-04-23T09:12:11.857Z,100334.91
2023-04-23T09:14:42.474Z,100343.41
2023-04-23T09:17:12.860Z,100350.00
2023-04-23T09:19:43.447Z,100337.25
2023-04-23T09:22:13.720Z,100342.00
2023-04-23T09:24:46.471Z,100345.53
2023-04-23T09:27:16.486Z,100338.06
2023-04-23T09:29:45.182Z,100336.97
2023-04-23T09:32:15.463Z,100336.09
2023-04-23T09:34:45.290Z,100328.72
2023-04-23T09:37:14.124Z,100327.47
2023-04-23T09:39:43.649Z,100327.25
2023-04-23T09:42:13.581Z,100324.09
2023-04-23T09:44:43.061Z,100327.94
2023-04-23T09:47:12.927Z,100322.97
2023-04-23T09:49:43.365Z,100315.91
2023-04-23T09:52:13.591Z,100323.97
2023-04-23T09:54:42.384Z,100329.34
2023-04-23T09:57:12.300Z,100322.97
2023-04-23T09:59:49.785Z,100317.84
2023-04-23T10:02:22.545Z,100313.13
2023-04-23T10:04:50.855Z,100321.94
2023-04-23T10:07:20.647Z,100315.81
2023-04-23T10:09:50.421Z,100315.19
2023-04-23T10:14:50.880Z,100330.34
2023-04-23T10:17:20.313Z,100317.34
2023-04-23T10:19:50.125Z,100319.16
2023-04-23T10:22:19.902Z,100306.75
2023-04-23T10:24:49.566Z,100307.97
2023-04-23T10:27:30.856Z,100317.47
2023-04-23T10:30:06.986Z,100317.56
2023-04-23T10:32:36.470Z,100315.78
2023-04-23T10:35:06.817Z,100311.75
2023-04-23T10:37:37.086Z,100313.09
2023-04-23T10:40:07.918Z,100313.34
2023-04-23T10:42:38.251Z,100307.59
2023-04-23T10:45:20.342Z,100299.34
2023-04-23T10:47:51.826Z,100296.06
2023-04-23T10:50:22.850Z,100300.81
2023-04-23T10:52:53.002Z,100294.66
2023-04-23T10:55:21.609Z,100289.41
2023-04-23T10:57:50.271Z,100290.56
2023-04-23T11:00:20.648Z,100291.09
2023-04-23T11:02:50.875Z,100281.53
2023-04-23T11:05:19.685Z,100273.06
2023-04-23T11:07:50.048Z,100277.91
2023-04-23T11:10:19.923Z,100270.63
2023-04-23T11:12:50.213Z,100265.06
2023-04-23T11:15:20.562Z,100256.19
2023-04-23T11:17:50.903Z,100262.00
2023-04-23T11:20:21.305Z,100262.63
2023-04-23T11:22:50.730Z,100252.94
2023-04-23T11:25:21.056Z,100244.81
2023-04-23T11:27:51.239Z,100238.06
2023-04-23T11:30:20.032Z,100241.47
2023-04-23T11:32:50.439Z,100245.09
2023-04-23T11:35:20.144Z,100236.50
2023-04-23T11:37:48.876Z,100234.78
2023-04-23T11:40:18.806Z,100230.38
2023-04-23T11:42:49.216Z,100228.59
2023-04-23T11:45:18.769Z,100225.38
2023-04-23T11:47:47.504Z,100213.06
2023-04-23T11:50:17.666Z,100214.97
2023-04-23T11:52:46.540Z,100206.22
2023-04-23T11:55:16.745Z,100193.66
2023-04-23T11:57:46.533Z,100191.78
2023-04-23T12:00:16.532Z,100189.16
2023-04-23T12:02:45.486Z,100198.06
2023-04-23T12:05:15.957Z,100193.88
2023-04-23T12:07:45.868Z,100184.78
2023-04-23T12:10:16.540Z,100179.03
2023-04-23T12:12:46.702Z,100162.19
2023-04-23T12:15:14.949Z,100158.81
2023-04-23T12:17:44.272Z,100163.81
2023-04-23T12:20:14.747Z,100160.22
2023-04-23T12:22:44.168Z,100163.25
2023-04-23T12:25:14.505Z,100164.91
2023-04-23T12:27:44.503Z,100163.31
2023-04-23T12:30:12.940Z,100162.47
2023-04-23T12:32:41.690Z,100161.84
2023-04-23T12:35:11.242Z,100150.38
2023-04-23T12:37:39.906Z,100162.53
2023-04-23T12:40:10.226Z,100151.28
2023-04-23T12:42:40.140Z,100143.31
2023-04-23T12:45:09.276Z,100136.31
2023-04-23T12:47:42.664Z,100135.19
2023-04-23T12:50:12.525Z,100127.28
2023-04-23T12:52:41.820Z,100115.31
2023-04-23T12:55:12.093Z,100125.56
2023-04-23T12:57:42.438Z,100126.41
2023-04-23T13:00:12.896Z,100107.84
2023-04-23T13:02:43.042Z,100112.88
2023-04-23T13:05:11.773Z,100103.63
2023-04-23T13:07:42.104Z,100114.28
2023-04-23T13:10:12.175Z,100110.13
2023-04-23T13:12:40.859Z,100102.47
2023-04-23T13:15:10.616Z,100098.06
2023-04-23T13:17:39.213Z,100101.34
2023-04-23T13:20:08.080Z,100083.34
2023-04-23T13:22:37.049Z,100080.50
2023-04-23T13:25:04.962Z,100078.91
2023-04-23T13:27:34.044Z,100074.56
2023-04-23T13:30:06.411Z,100068.13
2023-04-23T13:32:36.832Z,100063.06
2023-04-23T13:35:06.264Z,100056.63
2023-04-23T13:37:36.585Z,100054.47
2023-04-23T13:40:06.943Z,100050.63
2023-04-23T13:42:37.396Z,100059.13
2023-04-23T13:45:07.766Z,100051.88
2023-04-23T13:47:37.656Z,100049.75
2023-04-23T13:50:07.055Z,100048.38
2023-04-23T13:52:36.644Z,100058.44
2023-04-23T13:55:04.966Z,100043.19
2023-04-23T13:57:35.678Z,100029.34
2023-04-23T14:00:07.535Z,100033.41
2023-04-23T14:02:37.746Z,100027.06
2023-04-23T14:05:07.747Z,100024.44
2023-04-23T14:07:37.546Z,100027.16
2023-04-23T14:10:06.825Z,100015.13
2023-04-23T14:12:36.663Z,100016.78
2023-04-23T14:15:06.060Z,100006.56
2023-04-23T14:17:36.080Z,100008.59
2023-04-23T14:20:05.631Z,100001.19
2023-04-23T14:22:35.086Z,99986.22
2023-04-23T14:25:05.203Z,99991.53
2023-04-23T14:27:33.851Z,99993.53
2023-04-23T14:30:04.207Z,99988.78
2023-04-23T14:32:34.263Z,99984.28
2023-04-23T14:35:02.542Z,99980.06
2023-04-23T14:37:31.915Z,99973.25
2023-04-23T14:40:02.301Z,99974.69
2023-04-23T14:42:31.704Z,99974.69
2023-04-23T14:45:01.955Z,99973.00
2023-04-23T14:47:32.400Z,99973.31
2023-04-23T14:50:01.904Z,99973.44
2023-04-23T14:52:32.240Z,99983.06
2023-04-23T14:55:02.606Z,99995.25
2023-04-23T14:57:32.898Z,99982.41
2023-04-23T15:00:02.944Z,99989.75
2023-04-23T15:02:31.722Z,99996.38
2023-04-23T15:05:01.836Z,100012.50
2023-04-23T15:07:30.462Z,100018.56
2023-04-23T15:10:00.748Z,100026.03
2023-04-23T15:12:31.190Z,100024.16
2023-04-23T15:15:01.464Z,100019.66
2023-04-23T15:17:31.665Z,100035.44
2023-04-23T15:20:02.054Z,100044.44
2023-04-23T15:22:32.410Z,100038.81
2023-04-23T15:25:02.464Z,100034.94
2023-04-23T15:27:30.908Z,100040.72
2023-04-23T15:29:59.651Z,100039.31
2023-04-23T15:32:29.993Z,100045.09
2023-04-23T15:35:00.369Z,100056.38
2023-04-23T15:37:30.651Z,100052.69
2023-04-23T15:40:00.277Z,100052.97
2023-04-23T15:42:29.074Z,100044.63
2023-04-23T15:44:58.061Z,100045.00
2023-04-23T15:47:27.959Z,100045.44
2023-04-23T15:49:57.316Z,100048.66
2023-04-23T15:52:27.931Z,100042.44
2023-04-23T15:54:57.358Z,100033.56
2023-04-23T15:57:27.173Z,100033.81
2023-04-23T15:59:56.220Z,100028.16
2023-04-23T16:02:25.513Z,100035.31
2023-04-23T16:04:54.459Z,100028.94
2023-04-23T16:07:24.563Z,100020.06
2023-04-23T16:09:53.976Z,100021.88
2023-04-23T16:12:24.355Z,100018.34
2023-04-23T16:14:54.261Z,100024.09
2023-04-23T16:17:23.934Z,100015.91
2023-04-23T16:19:54.643Z,100018.41
2023-04-23T16:22:24.936Z,100011.34
2023-04-23T16:24:55.288Z,100007.09
2023-04-23T16:27:25.130Z,99992.88
2023-04-23T16:29:54.348Z,99984.00
2023-04-23T16:32:24.253Z,99982.41
2023-04-23T16:34:57.445Z,99965.50
2023-04-23T16:37:27.295Z,99963.38
2023-04-23T16:39:57.057Z,99955.75
2023-04-23T16:42:26.533Z,99941.69
2023-04-23T16:44:56.477Z,99940.09
2023-04-23T16:47:25.929Z,99937.28
2023-04-23T16:49:55.693Z,99930.50
2023-04-23T16:52:24.535Z,99914.31
2023-04-23T16:54:54.471Z,99912.88
2023-04-23T16:57:23.964Z,99904.69
2023-04-23T16:59:54.618Z,99885.81
2023-04-23T17:02:24.713Z,99874.97
2023-04-23T17:04:53.121Z,99864.13
2023-04-23T17:07:22.642Z,99862.72
2023-04-23T17:09:53.044Z,99843.84
2023-04-23T17:12:22.368Z,99850.44
2023-04-23T17:14:52.714Z,99841.00
2023-04-23T17:17:22.125Z,99826.38
2023-04-23T17:19:52.555Z,99824.97
2023-04-23T17:22:22.912Z,99812.88
2023-04-23T17:24:53.401Z,99811.47
2023-04-23T17:27:23.185Z,99809.31
2023-04-23T17:29:52.633Z,99808.63
2023-04-23T17:32:22.974Z,99807.34
2023-04-23T17:35:06.483Z,99795.41
2023-04-23T17:37:38.852Z,99788.78
2023-04-23T17:40:08.307Z,99787.53
2023-04-23T17:42:38.403Z,99777.00
2023-04-23T17:45:06.825Z,99768.97
2023-04-23T17:47:36.711Z,99772.34
2023-04-23T17:50:06.054Z,99758.25
2023-04-23T17:52:36.384Z,99757.41
2023-04-23T17:55:06.638Z,99757.25
2023-04-23T17:57:36.930Z,99749.78
2023-04-23T18:00:06.476Z,99741.63
2023-04-23T18:02:40.093Z,99744.13
2023-04-23T18:05:09.939Z,99742.00
2023-04-23T18:07:39.352Z,99734.53
2023-04-23T18:10:08.733Z,99731.75
2023-04-23T18:12:38.065Z,99731.03
2023-04-23T18:15:07.910Z,99732.88
2023-04-23T18:17:36.784Z,99720.59
2023-04-23T18:20:06.190Z,99721.84
2023-04-23T18:22:36.038Z,99722.97
2023-04-23T18:25:04.652Z,99709.47
2023-04-23T18:27:34.134Z,99706.63
2023-04-23T18:30:02.898Z,99703.81
2023-04-23T18:32:34.694Z,99697.03
2023-04-23T18:35:05.195Z,99698.16
2023-04-23T18:37:33.717Z,99696.72
2023-04-23T18:40:01.966Z,99695.34
2023-04-23T18:42:31.411Z,99687.19
2023-04-23T18:45:01.610Z,99691.09
2023-04-23T18:47:31.285Z,99691.66
2023-04-23T18:50:03.990Z,99693.63
2023-04-23T18:52:33.336Z,99696.13
2023-04-23T18:55:02.968Z,99693.31
2023-04-23T18:57:31.833Z,99690.50
2023-04-23T19:00:01.027Z,99681.09
2023-04-23T19:05:04.459Z,99683.47
2023-04-23T19:07:33.297Z,99682.03
2023-04-23T19:10:03.680Z,99675.97
2023-04-23T19:12:33.582Z,99677.81
2023-04-23T19:15:02.857Z,99676.38
2023-04-23T19:17:33.056Z,99674.97
2023-04-23T19:20:03.426Z,99673.56
2023-04-23T19:22:33.448Z,99670.03
2023-04-23T19:25:02.121Z,99663.97
2023-04-23T19:27:32.599Z,99662.56
2023-04-23T19:30:01.638Z,99663.97
2023-04-23T19:32:30.091Z,99655.13
2023-04-23T19:37:47.255Z,99647.63
2023-04-23T19:40:15.967Z,99646.25
2023-04-23T19:42:45.988Z,99644.81
2023-04-23T19:45:14.820Z,99632.75
2023-04-23T19:47:44.346Z,99638.09
2023-04-23T19:50:14.500Z,99642.00
2023-04-23T19:52:42.993Z,99640.03
2023-04-23T19:55:11.501Z,99632.59
2023-04-23T19:57:43.340Z,99642.00
2023-04-23T20:00:12.683Z,99640.63
2023-04-23T20:02:42.883Z,99628.50
2023-04-23T20:05:11.790Z,99628.50
2023-04-23T20:07:41.779Z,99619.78
2023-04-23T20:10:11.122Z,99627.09
2023-04-23T20:12:40.972Z,99627.09
2023-04-23T20:15:10.338Z,99624.28
2023-04-23T20:17:41.240Z,99628.91
2023-04-23T20:20:11.559Z,99621.44
2023-04-23T20:22:41.418Z,99620.75
2023-04-23T20:25:11.706Z,99613.31
2023-04-23T20:27:41.553Z,99607.97
2023-04-23T20:30:10.363Z,99601.19
2023-04-23T20:32:39.411Z,99594.44
2023-04-23T20:35:08.240Z,99588.38
2023-04-23T20:37:38.599Z,99594.31
2023-04-23T20:40:08.937Z,99590.75
2023-04-23T20:42:39.437Z,99583.47
2023-04-23T20:45:08.471Z,99587.38
2023-04-23T20:47:37.887Z,99584.69
2023-04-23T20:50:08.256Z,99579.22
2023-04-23T20:52:38.566Z,99573.16
2023-04-23T20:55:08.818Z,99576.38
2023-04-23T20:57:39.012Z,99567.53
2023-04-23T21:00:09.275Z,99572.19
2023-04-23T21:02:39.649Z,99566.66
2023-04-23T21:05:10.219Z,99574.69
2023-04-23T21:07:40.552Z,99559.75
2023-04-23T21:10:10.344Z,99563.72
2023-04-23T21:12:39.734Z,99555.53
2023-04-23T21:15:09.022Z,99542.03
2023-04-23T21:17:39.392Z,99548.78
2023-04-23T21:20:09.801Z,99545.97
2023-04-23T21:22:39.631Z,99539.22
2023-04-23T21:25:08.513Z,99539.22
2023-04-23T21:27:38.395Z,99535.84
2023-04-23T21:30:07.938Z,99539.06
2023-04-23T21:32:37.828Z,99539.06
2023-04-23T21:35:06.911Z,99529.66
2023-04-23T21:37:35.648Z,99530.75
2023-04-23T21:40:05.643Z,99530.75
2023-04-23T21:42:34.383Z,99535.41
2023-04-23T21:45:03.753Z,99528.66
2023-04-23T21:47:34.066Z,99534.00
2023-04-23T21:50:04.742Z,99530.59
2023-04-23T21:52:35.050Z,99525.13
2023-04-23T21:55:05.454Z,99529.19
2023-04-23T21:57:34.756Z,99536.53
2023-04-23T22:00:04.997Z,99535.81
2023-04-23T22:02:40.386Z,99529.75
2023-04-23T22:05:09.742Z,99535.09
2023-04-23T22:07:40.075Z,99535.09
2023-04-23T22:10:10.404Z,99539.03
2023-04-23T22:12:40.360Z,99523.00
2023-04-23T22:15:09.608Z,99532.97
2023-04-23T22:17:39.896Z,99527.63
2023-04-23T22:20:10.259Z,99540.97
2023-04-23T22:22:40.517Z,99536.22
2023-04-23T22:25:09.232Z,99540.84
2023-04-23T22:27:39.122Z,99551.53
2023-04-23T22:30:09.499Z,99546.72
2023-04-23T22:32:39.814Z,99541.94
2023-04-23T22:35:09.813Z,99555.16
2023-04-23T22:37:38.520Z,99544.84
2023-04-23T22:40:08.117Z,99556.97
2023-04-23T22:42:36.946Z,99563.00
2023-04-23T22:45:06.312Z,99567.63
2023-04-23T22:47:36.671Z,99570.84
2023-04-23T22:50:06.023Z,99586.16
2023-04-23T22:52:35.857Z,99585.44
2023-04-23T22:55:04.935Z,99594.03
2023-04-23T22:57:33.561Z,99603.97
2023-04-23T23:00:03.515Z,99607.88
2023-04-23T23:02:32.317Z,99610.56
2023-04-23T23:05:02.596Z,99609.16
2023-04-23T23:07:32.096Z,99609.72
2023-04-23T23:10:00.948Z,99617.72
2023-04-23T23:12:30.316Z,99625.03
2023-04-23T23:15:00.601Z,99612.91
2023-04-23T23:17:31.069Z,99623.59
2023-04-23T23:20:00.205Z,99622.19
2023-04-23T23:22:28.677Z,99631.44
2023-04-23T23:24:57.131Z,99625.44
2023-04-23T23:27:25.876Z,99632.72
2023-04-23T23:29:56.199Z,99627.38
2023-04-23T23:32:25.999Z,99627.94
2023-04-23T23:34:55.301Z,99629.88
2023-04-23T23:37:25.117Z,99637.88
2023-04-23T23:39:53.479Z,99639.13
2023-04-23T23:42:22.908Z,99643.06
2023-04-23T23:44:52.110Z,99637.03
2023-04-23T23:47:20.975Z,99636.31
2023-04-23T23:49:50.414Z,99648.97
2023-04-23T23:52:20.805Z,99646.81
2023-04-23T23:54:51.179Z,99641.47
2023-04-23T23:57:20.300Z,99646.81
2023-04-23T23:59:48.952Z,99640.25
